createdAt,value
2023-03-01T00:00:49.045Z,1.40
2023-03-01T00:01:49.039Z,1.45
2023-03-01T00:02:49.015Z,1.52
2023-03-01T00:03:49.134Z,1.42
2023-03-01T00:04:49.002Z,1.47
2023-03-01T00:05:49.012Z,1.44
2023-03-01T00:06:48.971Z,1.51
2023-03-01T00:07:48.952Z,1.48
2023-03-01T00:08:48.979Z,1.41
2023-03-01T00:09:48.964Z,1.37
2023-03-01T00:10:48.954Z,1.45
2023-03-01T00:11:48.941Z,1.40
2023-03-01T00:12:48.927Z,1.50
2023-03-01T00:13:48.891Z,1.41
2023-03-01T00:14:48.913Z,1.55
2023-03-01T00:15:48.890Z,1.50
2023-03-01T00:16:48.877Z,1.41
2023-03-01T00:17:48.856Z,1.47
2023-03-01T00:18:48.839Z,1.50
2023-03-01T00:19:48.824Z,1.45
2023-03-01T00:20:48.837Z,1.48
2023-03-01T00:21:48.845Z,1.42
2023-03-01T00:22:48.790Z,1.54
2023-03-01T00:23:48.781Z,1.51
2023-03-01T00:24:48.783Z,1.55
2023-03-01T00:25:48.763Z,1.63
2023-03-01T00:26:48.778Z,1.60
2023-03-01T00:27:48.768Z,1.60
2023-03-01T00:28:48.746Z,1.51
2023-03-01T00:29:48.712Z,1.55
2023-03-01T00:30:48.821Z,1.51
2023-03-01T00:31:48.768Z,1.42
2023-03-01T00:32:48.686Z,1.45
2023-03-01T00:33:48.719Z,1.42
2023-03-01T00:34:48.662Z,1.59
2023-03-01T00:35:48.756Z,1.36
2023-03-01T00:36:48.634Z,1.40
2023-03-01T00:37:48.641Z,1.51
2023-03-01T00:38:48.631Z,1.34
2023-03-01T00:39:48.638Z,1.37
2023-03-01T00:40:48.603Z,1.40
2023-03-01T00:41:48.579Z,1.48
2023-03-01T00:42:48.580Z,1.34
2023-03-01T00:43:48.559Z,1.36
2023-03-01T00:44:48.567Z,1.34
2023-03-01T00:45:48.617Z,1.37
2023-03-01T00:46:48.517Z,1.37
2023-03-01T00:47:48.509Z,1.34
2023-03-01T00:48:48.516Z,1.34
2023-03-01T00:49:48.526Z,1.42
2023-03-01T00:50:48.493Z,1.52
2023-03-01T00:51:48.517Z,1.50
2023-03-01T00:52:48.456Z,1.42
2023-03-01T00:53:48.445Z,1.52
2023-03-01T00:54:48.432Z,1.51
2023-03-01T00:55:48.439Z,1.44
2023-03-01T00:56:48.431Z,1.40
2023-03-01T00:57:48.442Z,1.48
2023-03-01T00:58:48.389Z,1.41
2023-03-01T00:59:49.315Z,1.45
2023-03-01T01:00:48.408Z,1.55
2023-03-01T01:01:48.462Z,1.42
2023-03-01T01:02:48.526Z,1.59
2023-03-01T01:03:48.354Z,1.47
2023-03-01T01:04:48.316Z,1.40
2023-03-01T01:05:48.328Z,1.33
2023-03-01T01:06:48.320Z,1.30
2023-03-01T01:07:48.314Z,1.36
2023-03-01T01:08:48.317Z,1.36
2023-03-01T01:09:48.333Z,1.32
2023-03-01T01:10:48.254Z,1.41
2023-03-01T01:11:48.243Z,1.36
2023-03-01T01:12:48.265Z,1.37
2023-03-01T01:13:48.254Z,1.36
2023-03-01T01:14:48.251Z,1.41
2023-03-01T01:15:48.236Z,1.44
2023-03-01T01:16:48.197Z,1.36
2023-03-01T01:17:48.175Z,1.40
2023-03-01T01:18:48.191Z,1.48
2023-03-01T01:19:48.185Z,1.45
2023-03-01T01:20:48.148Z,1.41
2023-03-01T01:21:48.161Z,1.37
2023-03-01T01:22:48.130Z,1.48
2023-03-01T01:23:48.119Z,1.37
2023-03-01T01:24:48.130Z,1.50
2023-03-01T01:25:48.084Z,1.48
2023-03-01T01:26:48.090Z,1.44
2023-03-01T01:27:48.088Z,1.50
2023-03-01T01:28:48.071Z,1.41
2023-03-01T01:29:48.057Z,1.50
2023-03-01T01:30:48.097Z,1.45
2023-03-01T01:31:48.048Z,1.37
2023-03-01T01:32:48.002Z,1.42
2023-03-01T01:33:48.017Z,1.48
2023-03-01T01:34:48.008Z,1.40
2023-03-01T01:35:48.034Z,1.45
2023-03-01T01:36:47.991Z,1.48
2023-03-01T01:37:47.941Z,1.47
2023-03-01T01:38:47.965Z,1.44
2023-03-01T01:39:47.968Z,1.44
2023-03-01T01:40:47.926Z,1.51
2023-03-01T01:41:47.948Z,1.51
2023-03-01T01:42:47.890Z,1.51
2023-03-01T01:43:47.883Z,1.60
2023-03-01T01:44:47.929Z,1.60
2023-03-01T01:45:47.906Z,1.47
2023-03-01T01:46:47.888Z,1.58
2023-03-01T01:47:47.856Z,1.50
2023-03-01T01:48:47.825Z,1.62
2023-03-01T01:49:47.808Z,1.51
2023-03-01T01:50:47.818Z,1.52
2023-03-01T01:51:47.813Z,1.52
2023-03-01T01:52:47.798Z,1.41
2023-03-01T01:53:47.797Z,1.42
2023-03-01T01:54:47.795Z,1.45
2023-03-01T01:55:47.738Z,1.45
2023-03-01T01:56:47.757Z,1.47
2023-03-01T01:57:47.759Z,1.41
2023-03-01T01:58:47.737Z,1.44
2023-03-01T01:59:47.693Z,1.42
2023-03-01T02:00:47.704Z,1.51
2023-03-01T02:01:47.678Z,1.48
2023-03-01T02:02:47.881Z,1.34
2023-03-01T02:03:47.728Z,1.41
2023-03-01T02:04:47.666Z,1.33
2023-03-01T02:05:54.742Z,1.32
2023-03-01T02:06:48.614Z,1.29
2023-03-01T02:07:47.620Z,1.34
2023-03-01T02:08:47.606Z,1.32
2023-03-01T02:09:47.645Z,1.34
2023-03-01T02:10:47.636Z,1.33
2023-03-01T02:11:47.568Z,1.30
2023-03-01T02:12:47.548Z,1.33
2023-03-01T02:13:47.537Z,1.40
2023-03-01T02:14:47.571Z,1.40
2023-03-01T02:15:47.581Z,1.41
2023-03-01T02:16:47.542Z,1.44
2023-03-01T02:17:47.493Z,1.32
2023-03-01T02:18:47.483Z,1.30
2023-03-01T02:19:47.470Z,1.34
2023-03-01T02:20:47.508Z,1.33
2023-03-01T02:21:47.503Z,1.33
2023-03-01T02:22:47.442Z,1.37
2023-03-01T02:23:47.425Z,1.36
2023-03-01T02:24:47.427Z,1.37
2023-03-01T02:25:47.434Z,1.36
2023-03-01T02:26:47.412Z,1.34
2023-03-01T02:27:47.448Z,1.32
2023-03-01T02:28:47.373Z,1.40
2023-03-01T02:29:47.358Z,1.32
2023-03-01T02:30:47.348Z,1.29
2023-03-01T02:31:47.508Z,1.27
2023-03-01T02:32:47.378Z,1.29
2023-03-01T02:33:47.374Z,1.18
2023-03-01T02:34:47.306Z,1.27
2023-03-01T02:35:47.337Z,1.14
2023-03-01T02:36:47.296Z,1.14
2023-03-01T02:37:47.321Z,1.12
2023-03-01T02:38:47.287Z,1.18
2023-03-01T02:39:47.288Z,1.22
2023-03-01T02:40:47.237Z,1.12
2023-03-01T02:41:47.245Z,1.14
2023-03-01T02:42:47.259Z,1.18
2023-03-01T02:43:47.233Z,1.14
2023-03-01T02:44:47.223Z,1.09
2023-03-01T02:45:47.177Z,1.14
2023-03-01T02:46:47.213Z,1.08
2023-03-01T02:47:47.188Z,1.12
2023-03-01T02:48:47.220Z,1.05
2023-03-01T02:49:47.160Z,1.05
2023-03-01T02:50:47.124Z,1.05
2023-03-01T02:51:47.122Z,1.08
2023-03-01T02:52:47.152Z,1.02
2023-03-01T02:53:47.118Z,1.11
2023-03-01T02:54:47.090Z,1.02
2023-03-01T02:55:47.105Z,0.97
2023-03-01T02:56:47.139Z,1.04
2023-03-01T02:57:47.056Z,1.06
2023-03-01T02:58:47.046Z,0.98
2023-03-01T02:59:47.093Z,0.94
2023-03-01T03:00:47.148Z,0.97
2023-03-01T03:01:47.484Z,1.04
2023-03-01T03:02:46.997Z,1.02
2023-03-01T03:03:47.041Z,0.90
2023-03-01T03:04:47.014Z,0.93
2023-03-01T03:05:46.992Z,1.02
2023-03-01T03:06:46.966Z,0.93
2023-03-01T03:07:47.009Z,0.98
2023-03-01T03:08:46.925Z,0.98
2023-03-01T03:09:46.917Z,0.84
2023-03-01T03:10:46.915Z,0.86
2023-03-01T03:11:46.958Z,0.75
2023-03-01T03:12:46.908Z,0.80
2023-03-01T03:13:46.877Z,0.78
2023-03-01T03:14:46.918Z,0.70
2023-03-01T03:15:46.863Z,0.75
2023-03-01T03:16:46.877Z,0.76
2023-03-01T03:17:46.869Z,0.72
2023-03-01T03:18:46.840Z,0.58
2023-03-01T03:19:46.806Z,0.66
2023-03-01T03:20:46.819Z,0.62
2023-03-01T03:21:46.806Z,0.61
2023-03-01T03:22:46.777Z,0.41
2023-03-01T03:23:46.782Z,0.44
2023-03-01T03:24:46.755Z,0.46
2023-03-01T03:25:46.750Z,0.38
2023-03-01T03:26:46.728Z,0.35
2023-03-01T03:27:46.706Z,0.41
2023-03-01T03:28:46.737Z,0.23
2023-03-01T03:29:46.714Z,0.23
2023-03-01T03:30:46.674Z,0.21
2023-03-01T03:31:46.746Z,0.17
2023-03-01T03:32:46.664Z,0.18
2023-03-01T03:33:46.694Z,0.21
2023-03-01T03:34:46.645Z,0.08
2023-03-01T03:35:46.689Z,0.04
2023-03-01T03:36:46.627Z,0.02
2023-03-01T03:37:46.593Z,0.03
2023-03-01T03:38:46.644Z,-0.01
2023-03-01T03:39:46.624Z,-0.11
2023-03-01T03:40:46.579Z,-0.15
2023-03-01T03:41:46.548Z,-0.21
2023-03-01T03:42:46.538Z,-0.28
2023-03-01T03:43:46.571Z,-0.25
2023-03-01T03:44:46.521Z,-0.31
2023-03-01T03:45:46.580Z,-0.34
2023-03-01T03:46:46.520Z,-0.42
2023-03-01T03:47:46.480Z,-0.37
2023-03-01T03:48:46.484Z,-0.37
2023-03-01T03:49:46.479Z,-0.44
2023-03-01T03:50:46.476Z,-0.39
2023-03-01T03:51:46.473Z,-0.44
2023-03-01T03:52:46.479Z,-0.43
2023-03-01T03:53:46.425Z,-0.51
2023-03-01T03:54:46.442Z,-0.54
2023-03-01T03:55:46.409Z,-0.51
2023-03-01T03:56:46.422Z,-0.46
2023-03-01T03:57:46.420Z,-0.54
2023-03-01T03:58:46.412Z,-0.49
2023-03-01T03:59:46.368Z,-0.51
2023-03-01T04:00:46.349Z,-0.61
2023-03-01T04:01:46.417Z,-0.49
2023-03-01T04:02:46.544Z,-0.64
2023-03-01T04:03:46.368Z,-0.65
2023-03-01T04:04:46.293Z,-0.62
2023-03-01T04:05:46.285Z,-0.61
2023-03-01T04:06:46.280Z,-0.61
2023-03-01T04:07:46.265Z,-0.60
2023-03-01T04:08:46.288Z,-0.55
2023-03-01T04:09:46.287Z,-0.67
2023-03-01T04:10:46.228Z,-0.60
2023-03-01T04:11:46.214Z,-0.61
2023-03-01T04:12:46.251Z,-0.64
2023-03-01T04:13:46.202Z,-0.64
2023-03-01T04:14:47.988Z,-0.72
2023-03-01T04:15:46.230Z,-0.69
2023-03-01T04:16:46.217Z,-0.75
2023-03-01T04:17:46.149Z,-0.72
2023-03-01T04:18:46.174Z,-0.79
2023-03-01T04:19:46.140Z,-0.75
2023-03-01T04:20:46.188Z,-0.78
2023-03-01T04:21:46.159Z,-0.78
2023-03-01T04:22:46.096Z,-0.80
2023-03-01T04:23:46.093Z,-0.75
2023-03-01T04:24:46.121Z,-0.80
2023-03-01T04:25:46.084Z,-0.82
2023-03-01T04:26:46.052Z,-0.82
2023-03-01T04:27:46.054Z,-0.79
2023-03-01T04:28:46.135Z,-0.82
2023-03-01T04:29:46.034Z,-0.91
2023-03-01T04:30:46.038Z,-0.86
2023-03-01T04:31:46.069Z,-0.78
2023-03-01T04:32:46.079Z,-0.79
2023-03-01T04:33:46.053Z,-0.79
2023-03-01T04:34:45.962Z,-0.82
2023-03-01T04:35:46.105Z,-0.85
2023-03-01T04:36:46.084Z,-0.86
2023-03-01T04:37:45.957Z,-0.92
2023-03-01T04:38:45.915Z,-0.92
2023-03-01T04:39:45.960Z,-0.99
2023-03-01T04:40:45.924Z,-0.98
2023-03-01T04:41:45.915Z,-0.97
2023-03-01T04:42:45.900Z,-0.95
2023-03-01T04:43:45.860Z,-0.95
2023-03-01T04:44:45.872Z,-0.95
2023-03-01T04:45:45.873Z,-0.95
2023-03-01T04:46:45.859Z,-0.98
2023-03-01T04:47:45.825Z,-0.97
2023-03-01T04:48:45.825Z,-0.97
2023-03-01T04:49:45.795Z,-1.02
2023-03-01T04:50:45.787Z,-1.09
2023-03-01T04:51:45.808Z,-1.01
2023-03-01T04:52:45.823Z,-1.01
2023-03-01T04:53:45.769Z,-0.98
2023-03-01T04:54:45.757Z,-1.04
2023-03-01T04:55:45.767Z,-1.01
2023-03-01T04:56:45.759Z,-0.97
2023-03-01T04:57:45.708Z,-1.04
2023-03-01T04:58:45.731Z,-0.99
2023-03-01T04:59:45.698Z,-1.01
2023-03-01T05:00:45.703Z,-0.98
2023-03-01T05:01:45.700Z,-0.92
2023-03-01T05:02:45.698Z,-1.01
2023-03-01T05:03:45.664Z,-1.02
2023-03-01T05:04:45.769Z,-1.04
2023-03-01T05:05:45.624Z,-1.09
2023-03-01T05:06:45.733Z,-0.99
2023-03-01T05:07:45.597Z,-1.01
2023-03-01T05:08:45.587Z,-0.98
2023-03-01T05:09:45.588Z,-0.99
2023-03-01T05:10:45.570Z,-1.02
2023-03-01T05:11:45.601Z,-0.98
2023-03-01T05:12:45.560Z,-1.02
2023-03-01T05:13:45.541Z,-1.16
2023-03-01T05:14:45.520Z,-1.13
2023-03-01T05:15:45.599Z,-1.04
2023-03-01T05:16:45.533Z,-1.05
2023-03-01T05:17:45.538Z,-1.05
2023-03-01T05:18:45.478Z,-1.04
2023-03-01T05:19:45.464Z,-1.02
2023-03-01T05:20:45.490Z,-1.07
2023-03-01T05:21:45.481Z,-1.04
2023-03-01T05:22:45.450Z,-1.15
2023-03-01T05:23:45.488Z,-1.13
2023-03-01T05:24:45.411Z,-1.13
2023-03-01T05:25:45.398Z,-1.16
2023-03-01T05:26:45.397Z,-1.23
2023-03-01T05:27:45.409Z,-1.05
2023-03-01T05:28:45.407Z,-1.15
2023-03-01T05:29:45.480Z,-1.10
2023-03-01T05:30:45.380Z,-1.16
2023-03-01T05:31:45.331Z,-1.07
2023-03-01T05:32:45.345Z,-1.12
2023-03-01T05:33:45.317Z,-1.13
2023-03-01T05:34:45.323Z,-1.16
2023-03-01T05:35:45.363Z,-1.09
2023-03-01T05:36:45.292Z,-1.15
2023-03-01T05:37:45.265Z,-1.16
2023-03-01T05:38:45.280Z,-1.15
2023-03-01T05:39:45.275Z,-1.15
2023-03-01T05:40:45.268Z,-1.13
2023-03-01T05:41:45.270Z,-1.25
2023-03-01T05:42:45.213Z,-1.23
2023-03-01T05:43:45.202Z,-1.19
2023-03-01T05:44:45.207Z,-1.19
2023-03-01T05:45:45.236Z,-1.19
2023-03-01T05:46:45.167Z,-1.27
2023-03-01T05:47:45.196Z,-1.25
2023-03-01T05:48:45.162Z,-1.25
2023-03-01T05:49:45.141Z,-1.33
2023-03-01T05:50:45.124Z,-1.28
2023-03-01T05:51:45.155Z,-1.37
2023-03-01T05:52:45.101Z,-1.41
2023-03-01T05:53:45.148Z,-1.34
2023-03-01T05:54:45.076Z,-1.31
2023-03-01T05:55:45.084Z,-1.37
2023-03-01T05:56:45.066Z,-1.49
2023-03-01T05:57:45.073Z,-1.40
2023-03-01T05:58:45.038Z,-1.38
2023-03-01T05:59:45.092Z,-1.46
2023-03-01T06:00:45.031Z,-1.48
2023-03-01T06:01:45.031Z,-1.45
2023-03-01T06:02:45.013Z,-1.48
2023-03-01T06:03:45.018Z,-1.55
2023-03-01T06:04:45.137Z,-1.48
2023-03-01T06:05:45.033Z,-1.56
2023-03-01T06:06:44.956Z,-1.48
2023-03-01T06:07:44.944Z,-1.48
2023-03-01T06:08:44.945Z,-1.45
2023-03-01T06:09:44.912Z,-1.43
2023-03-01T06:10:44.914Z,-1.51
2023-03-01T06:11:44.927Z,-1.45
2023-03-01T06:12:44.896Z,-1.45
2023-03-01T06:13:44.883Z,-1.46
2023-03-01T06:14:44.884Z,-1.45
2023-03-01T06:15:44.916Z,-1.43
2023-03-01T06:16:44.854Z,-1.40
2023-03-01T06:17:44.858Z,-1.49
2023-03-01T06:18:44.839Z,-1.43
2023-03-01T06:19:44.818Z,-1.45
2023-03-01T06:20:44.811Z,-1.43
2023-03-01T06:21:44.787Z,-1.38
2023-03-01T06:22:52.898Z,-1.46
2023-03-01T06:23:44.772Z,-1.41
2023-03-01T06:24:44.750Z,-1.40
2023-03-01T06:25:44.752Z,-1.35
2023-03-01T06:26:44.741Z,-1.34
2023-03-01T06:27:44.746Z,-1.34
2023-03-01T06:28:44.782Z,-1.38
2023-03-01T06:29:44.694Z,-1.33
2023-03-01T06:30:44.690Z,-1.37
2023-03-01T06:31:44.722Z,-1.35
2023-03-01T06:32:44.693Z,-1.37
2023-03-01T06:33:44.667Z,-1.40
2023-03-01T06:34:44.679Z,-1.34
2023-03-01T06:35:44.725Z,-1.30
2023-03-01T06:36:44.619Z,-1.23
2023-03-01T06:37:44.606Z,-1.31
2023-03-01T06:38:44.603Z,-1.19
2023-03-01T06:39:44.617Z,-1.22
2023-03-01T06:40:44.597Z,-1.16
2023-03-01T06:41:44.560Z,-1.19
2023-03-01T06:42:44.588Z,-1.20
2023-03-01T06:43:44.548Z,-1.20
2023-03-01T06:44:44.542Z,-1.10
2023-03-01T06:45:44.565Z,-1.10
2023-03-01T06:46:44.594Z,-1.16
2023-03-01T06:47:44.495Z,-1.12
2023-03-01T06:48:44.508Z,-1.13
2023-03-01T06:49:44.499Z,-1.04
2023-03-01T06:50:44.540Z,-0.99
2023-03-01T06:51:44.499Z,-0.95
2023-03-01T06:52:44.435Z,-0.94
2023-03-01T06:53:44.439Z,-0.89
2023-03-01T06:54:44.429Z,-0.76
2023-03-01T06:55:44.410Z,-0.78
2023-03-01T06:56:44.426Z,-0.79
2023-03-01T06:57:44.392Z,-0.73
2023-03-01T06:58:44.366Z,-0.85
2023-03-01T06:59:44.365Z,-0.82
2023-03-01T07:00:44.349Z,-0.75
2023-03-01T07:01:44.364Z,-0.70
2023-03-01T07:02:44.373Z,-0.67
2023-03-01T07:03:44.326Z,-0.76
2023-03-01T07:04:44.312Z,-0.61
2023-03-01T07:05:44.314Z,-0.60
2023-03-01T07:06:44.288Z,-0.58
2023-03-01T07:07:44.288Z,-0.54
2023-03-01T07:08:44.266Z,-0.47
2023-03-01T07:09:44.308Z,-0.46
2023-03-01T07:10:44.239Z,-0.37
2023-03-01T07:11:44.323Z,-0.33
2023-03-01T07:12:44.240Z,-0.33
2023-03-01T07:13:44.224Z,-0.25
2023-03-01T07:14:44.184Z,-0.28
2023-03-01T07:15:44.208Z,-0.22
2023-03-01T07:16:44.201Z,-0.15
2023-03-01T07:17:44.187Z,-0.08
2023-03-01T07:18:44.170Z,-0.10
2023-03-01T07:19:44.135Z,-0.15
2023-03-01T07:20:44.135Z,-0.18
2023-03-01T07:21:44.109Z,-0.04
2023-03-01T07:22:44.142Z,-0.10
2023-03-01T07:23:44.151Z,-0.01
2023-03-01T07:24:44.082Z,0.03
2023-03-01T07:25:44.068Z,0.11
2023-03-01T07:26:44.053Z,0.07
2023-03-01T07:27:44.049Z,0.15
2023-03-01T07:28:44.051Z,0.08
2023-03-01T07:29:44.064Z,0.20
2023-03-01T07:30:44.006Z,0.23
2023-03-01T07:31:43.996Z,0.18
2023-03-01T07:32:44.088Z,0.21
2023-03-01T07:33:43.996Z,0.26
2023-03-01T07:34:44.040Z,0.29
2023-03-01T07:35:44.086Z,0.21
2023-03-01T07:36:44.009Z,0.32
2023-03-01T07:37:43.929Z,0.32
2023-03-01T07:38:43.918Z,0.35
2023-03-01T07:39:43.917Z,0.33
2023-03-01T07:40:43.936Z,0.44
2023-03-01T07:41:43.894Z,0.42
2023-03-01T07:42:43.886Z,0.41
2023-03-01T07:43:43.895Z,0.57
2023-03-01T07:44:43.866Z,0.50
2023-03-01T07:45:43.860Z,0.57
2023-03-01T07:46:43.861Z,0.55
2023-03-01T07:47:43.818Z,0.61
2023-03-01T07:48:43.804Z,0.62
2023-03-01T07:49:43.816Z,0.58
2023-03-01T07:50:43.781Z,0.61
2023-03-01T07:51:43.787Z,0.62
2023-03-01T07:52:43.804Z,0.68
2023-03-01T07:53:43.749Z,0.69
2023-03-01T07:54:43.757Z,0.69
2023-03-01T07:55:43.730Z,0.76
2023-03-01T07:56:43.748Z,0.79
2023-03-01T07:57:43.727Z,0.79
2023-03-01T07:58:43.742Z,0.80
2023-03-01T07:59:43.683Z,0.80
2023-03-01T08:00:43.733Z,0.88
2023-03-01T08:01:43.707Z,0.83
2023-03-01T08:02:43.669Z,0.87
2023-03-01T08:03:43.648Z,0.93
2023-03-01T08:04:43.666Z,0.96
2023-03-01T08:05:43.614Z,0.96
2023-03-01T08:06:43.600Z,1.02
2023-03-01T08:07:43.628Z,1.02
2023-03-01T08:08:43.638Z,0.98
2023-03-01T08:09:43.582Z,0.96
2023-03-01T08:10:43.601Z,1.05
2023-03-01T08:11:43.571Z,1.02
2023-03-01T08:12:43.535Z,0.94
2023-03-01T08:13:43.556Z,1.02
2023-03-01T08:14:43.527Z,1.00
2023-03-01T08:15:43.499Z,0.98
2023-03-01T08:16:43.578Z,1.02
2023-03-01T08:17:43.485Z,1.05
2023-03-01T08:18:43.489Z,1.04
2023-03-01T08:19:43.471Z,1.14
2023-03-01T08:20:43.458Z,1.14
2023-03-01T08:21:43.435Z,1.18
2023-03-01T08:22:43.448Z,1.14
2023-03-01T08:23:43.438Z,1.27
2023-03-01T08:24:43.417Z,1.20
2023-03-01T08:25:43.405Z,1.18
2023-03-01T08:26:43.416Z,1.24
2023-03-01T08:27:43.364Z,1.32
2023-03-01T08:28:43.400Z,1.27
2023-03-01T08:29:43.344Z,1.32
2023-03-01T08:30:43.344Z,1.30
2023-03-01T08:31:43.337Z,1.34
2023-03-01T08:32:43.361Z,1.30
2023-03-01T08:33:43.309Z,1.30
2023-03-01T08:34:43.289Z,1.37
2023-03-01T08:35:43.349Z,1.32
2023-03-01T08:36:43.278Z,1.37
2023-03-01T08:37:43.265Z,1.36
2023-03-01T08:38:43.241Z,1.40
2023-03-01T08:39:43.262Z,1.44
2023-03-01T08:40:43.347Z,1.37
2023-03-01T08:41:43.218Z,1.44
2023-03-01T08:42:43.244Z,1.59
2023-03-01T08:43:43.183Z,1.60
2023-03-01T08:44:45.456Z,1.65
2023-03-01T08:45:43.234Z,1.66
2023-03-01T08:46:43.187Z,1.63
2023-03-01T08:47:43.144Z,1.63
2023-03-01T08:48:43.163Z,1.72
2023-03-01T08:49:43.120Z,1.84
2023-03-01T08:50:43.104Z,1.73
2023-03-01T08:51:43.105Z,1.73
2023-03-01T08:52:43.124Z,1.80
2023-03-01T08:53:43.085Z,1.84
2023-03-01T08:54:43.078Z,1.84
2023-03-01T08:55:43.053Z,1.80
2023-03-01T08:56:43.074Z,1.81
2023-03-01T08:57:43.051Z,1.79
2023-03-01T08:58:43.041Z,1.87
2023-03-01T08:59:43.035Z,1.87
2023-03-01T09:00:42.998Z,1.88
2023-03-01T09:01:42.986Z,1.99
2023-03-01T09:02:42.973Z,1.90
2023-03-01T09:03:42.988Z,1.86
2023-03-01T09:04:42.967Z,1.80
2023-03-01T09:05:42.969Z,1.95
2023-03-01T09:06:42.931Z,1.90
2023-03-01T09:07:42.933Z,1.99
2023-03-01T09:08:42.908Z,2.12
2023-03-01T09:09:42.894Z,2.03
2023-03-01T09:10:42.959Z,2.03
2023-03-01T09:11:42.881Z,2.05
2023-03-01T09:12:42.881Z,2.07
2023-03-01T09:13:44.348Z,2.06
2023-03-01T09:14:42.877Z,2.17
2023-03-01T09:15:42.833Z,2.18
2023-03-01T09:16:42.933Z,2.18
2023-03-01T09:17:42.847Z,2.20
2023-03-01T09:18:42.822Z,2.24
2023-03-01T09:19:42.786Z,2.23
2023-03-01T09:20:42.807Z,2.24
2023-03-01T09:21:42.786Z,2.23
2023-03-01T09:22:42.800Z,2.23
2023-03-01T09:23:42.776Z,2.31
2023-03-01T09:24:42.747Z,2.36
2023-03-01T09:25:42.741Z,2.39
2023-03-01T09:26:43.411Z,2.38
2023-03-01T09:27:42.711Z,2.49
2023-03-01T09:28:42.734Z,2.43
2023-03-01T09:29:42.676Z,2.54
2023-03-01T09:30:42.740Z,2.59
2023-03-01T09:31:42.661Z,2.57
2023-03-01T09:32:42.651Z,2.57
2023-03-01T09:33:42.664Z,2.61
2023-03-01T09:34:42.621Z,2.56
2023-03-01T09:35:42.648Z,2.57
2023-03-01T09:36:42.599Z,2.64
2023-03-01T09:37:42.586Z,2.66
2023-03-01T09:38:42.589Z,2.69
2023-03-01T09:39:42.603Z,2.63
2023-03-01T09:40:42.572Z,2.63
2023-03-01T09:41:42.543Z,2.59
2023-03-01T09:42:42.530Z,2.59
2023-03-01T09:44:12.329Z,2.59
2023-03-01T09:45:12.325Z,2.61
2023-03-01T09:46:12.379Z,2.57
2023-03-01T09:47:12.415Z,2.57
2023-03-01T09:48:12.257Z,2.60
2023-03-01T09:49:12.277Z,2.67
2023-03-01T09:50:12.248Z,2.71
2023-03-01T09:51:12.226Z,2.69
2023-03-01T09:52:12.426Z,2.81
2023-03-01T09:53:12.200Z,2.84
2023-03-01T09:54:12.213Z,2.84
2023-03-01T09:55:12.192Z,2.75
2023-03-01T09:56:12.184Z,2.92
2023-03-01T09:57:12.164Z,2.78
2023-03-01T09:58:12.143Z,2.74
2023-03-01T09:59:12.158Z,2.79
2023-03-01T10:00:12.178Z,2.89
2023-03-01T10:01:12.132Z,2.78
2023-03-01T10:02:12.127Z,2.89
2023-03-01T10:03:12.112Z,2.84
2023-03-01T10:04:12.217Z,2.90
2023-03-01T10:05:12.127Z,2.84
2023-03-01T10:06:14.935Z,2.82
2023-03-01T10:07:13.063Z,2.90
2023-03-01T10:08:12.037Z,2.87
2023-03-01T10:09:12.027Z,2.90
2023-03-01T10:10:12.034Z,2.96
2023-03-01T10:11:12.030Z,2.93
2023-03-01T10:12:12.036Z,2.92
2023-03-01T10:13:11.983Z,2.95
2023-03-01T10:14:11.967Z,3.00
2023-03-01T10:15:11.982Z,2.96
2023-03-01T10:16:12.031Z,3.10
2023-03-01T10:17:11.972Z,3.20
2023-03-01T10:18:11.941Z,3.18
2023-03-01T10:19:11.925Z,3.31
2023-03-01T10:20:11.929Z,3.32
2023-03-01T10:21:11.897Z,3.31
2023-03-01T10:22:11.952Z,3.40
2023-03-01T10:23:11.878Z,3.40
2023-03-01T10:24:12.088Z,3.45
2023-03-01T10:25:11.846Z,3.29
2023-03-01T10:26:11.914Z,3.52
2023-03-01T10:27:11.859Z,3.60
2023-03-01T10:28:11.813Z,3.52
2023-03-01T10:29:11.813Z,3.58
2023-03-01T10:30:11.822Z,3.66
2023-03-01T10:31:11.883Z,3.51
2023-03-01T10:32:11.902Z,3.58
2023-03-01T10:33:11.755Z,3.54
2023-03-01T10:34:11.742Z,3.54
2023-03-01T10:35:11.752Z,3.54
2023-03-01T10:36:11.784Z,3.58
2023-03-01T10:37:11.710Z,3.69
2023-03-01T10:38:11.791Z,3.75
2023-03-01T10:39:11.708Z,3.75
2023-03-01T10:40:11.719Z,3.78
2023-03-01T10:41:11.693Z,3.78
2023-03-01T10:42:11.675Z,3.79
2023-03-01T10:43:11.647Z,3.80
2023-03-01T10:44:11.657Z,3.83
2023-03-01T10:45:11.627Z,3.79
2023-03-01T10:46:11.656Z,3.79
2023-03-01T10:47:11.633Z,3.87
2023-03-01T10:48:11.614Z,3.93
2023-03-01T10:49:11.577Z,3.93
2023-03-01T10:50:11.633Z,4.00
2023-03-01T10:51:11.556Z,4.02
2023-03-01T10:52:11.566Z,4.00
2023-03-01T10:53:11.533Z,4.06
2023-03-01T10:54:11.519Z,4.12
2023-03-01T10:55:11.581Z,4.14
2023-03-01T10:56:11.501Z,4.14
2023-03-01T10:57:11.500Z,4.14
2023-03-01T10:58:11.494Z,4.18
2023-03-01T10:59:11.466Z,4.23
2023-03-01T11:00:11.514Z,4.18
2023-03-01T11:01:11.475Z,4.20
2023-03-01T11:02:23.486Z,4.33
2023-03-01T11:03:12.467Z,4.23
2023-03-01T11:04:11.469Z,4.23
2023-03-01T11:05:11.407Z,4.30
2023-03-01T11:06:11.386Z,4.36
2023-03-01T11:07:11.382Z,4.40
2023-03-01T11:08:11.398Z,4.34
2023-03-01T11:09:11.375Z,4.34
2023-03-01T11:10:11.355Z,4.45
2023-03-01T11:11:11.333Z,4.36
2023-03-01T11:12:11.345Z,4.45
2023-03-01T11:13:11.309Z,4.41
2023-03-01T11:14:25.036Z,4.48
2023-03-01T11:15:12.346Z,4.42
2023-03-01T11:16:11.348Z,4.47
2023-03-01T11:17:11.266Z,4.42
2023-03-01T11:18:14.327Z,4.50
2023-03-01T11:19:11.246Z,4.33
2023-03-01T11:20:11.285Z,4.41
2023-03-01T11:21:11.235Z,4.48
2023-03-01T11:22:11.285Z,4.47
2023-03-01T11:23:11.223Z,4.51
2023-03-01T11:24:11.198Z,4.51
2023-03-01T11:25:11.178Z,4.59
2023-03-01T11:26:12.808Z,4.54
2023-03-01T11:27:11.203Z,4.55
2023-03-01T11:28:11.176Z,4.63
2023-03-01T11:29:11.131Z,4.66
2023-03-01T11:30:11.143Z,4.63
2023-03-01T11:31:11.189Z,4.77
2023-03-01T11:32:11.275Z,4.73
2023-03-01T11:33:11.254Z,4.92
2023-03-01T11:34:11.070Z,4.96
2023-03-01T11:35:11.068Z,4.92
2023-03-01T11:36:11.100Z,4.97
2023-03-01T11:37:11.067Z,5.03
2023-03-01T11:38:11.097Z,5.00
2023-03-01T11:39:11.046Z,4.99
2023-03-01T11:40:11.022Z,5.09
2023-03-01T11:41:10.994Z,5.12
2023-03-01T11:42:18.600Z,5.10
2023-03-01T11:43:12.025Z,5.12
2023-03-01T11:44:10.974Z,5.06
2023-03-01T11:45:10.967Z,5.07
2023-03-01T11:46:12.819Z,5.07
2023-03-01T11:47:11.023Z,4.99
2023-03-01T11:48:10.965Z,4.97
2023-03-01T11:49:10.920Z,4.94
2023-03-01T11:50:10.942Z,4.97
2023-03-01T11:51:10.875Z,5.02
2023-03-01T11:52:10.888Z,5.02
2023-03-01T11:53:10.952Z,5.02
2023-03-01T11:54:10.854Z,5.03
2023-03-01T11:55:10.831Z,4.94
2023-03-01T11:56:10.898Z,5.02
2023-03-01T11:57:10.839Z,5.04
2023-03-01T11:58:10.804Z,4.97
2023-03-01T11:59:10.805Z,4.97
2023-03-01T12:00:10.792Z,5.04
2023-03-01T12:01:10.765Z,4.94
2023-03-01T12:02:10.853Z,4.96
2023-03-01T12:03:10.782Z,4.96
2023-03-01T12:04:10.791Z,4.91
2023-03-01T12:05:10.785Z,4.99
2023-03-01T12:06:10.710Z,5.06
2023-03-01T12:07:10.702Z,5.07
2023-03-01T12:08:10.719Z,5.12
2023-03-01T12:09:10.715Z,5.13
2023-03-01T12:10:10.690Z,5.15
2023-03-01T12:11:10.662Z,5.24
2023-03-01T12:12:10.642Z,5.20
2023-03-01T12:13:10.655Z,5.28
2023-03-01T12:14:10.642Z,5.20
2023-03-01T12:15:10.640Z,5.28
2023-03-01T12:16:11.590Z,5.33
2023-03-01T12:17:10.679Z,5.28
2023-03-01T12:18:10.575Z,5.38
2023-03-01T12:19:10.568Z,5.39
2023-03-01T12:20:10.583Z,5.49
2023-03-01T12:21:10.608Z,5.45
2023-03-01T12:22:10.538Z,5.42
2023-03-01T12:23:20.109Z,5.48
2023-03-01T12:24:11.647Z,5.46
2023-03-01T12:25:10.515Z,5.57
2023-03-01T12:26:11.267Z,5.57
2023-03-01T12:27:10.502Z,5.54
2023-03-01T12:28:10.501Z,5.65
2023-03-01T12:29:10.452Z,5.58
2023-03-01T12:30:10.466Z,5.60
2023-03-01T12:31:10.428Z,5.71
2023-03-01T12:32:10.615Z,5.81
2023-03-01T12:33:10.421Z,5.75
2023-03-01T12:34:10.433Z,5.78
2023-03-01T12:35:10.384Z,5.86
2023-03-01T12:36:10.443Z,5.72
2023-03-01T12:37:10.382Z,5.89
2023-03-01T12:38:10.358Z,5.90
2023-03-01T12:39:10.617Z,5.93
2023-03-01T12:40:10.454Z,5.94
2023-03-01T12:41:10.338Z,5.96
2023-03-01T12:42:10.309Z,5.94
2023-03-01T12:43:10.311Z,6.01
2023-03-01T12:44:10.296Z,6.12
2023-03-01T12:45:10.288Z,6.09
2023-03-01T12:46:10.353Z,6.21
2023-03-01T12:47:10.272Z,6.31
2023-03-01T12:48:10.243Z,6.25
2023-03-01T12:49:10.275Z,6.25
2023-03-01T12:50:10.240Z,6.30
2023-03-01T12:51:10.205Z,6.40
2023-03-01T12:52:10.243Z,6.41
2023-03-01T12:53:10.183Z,6.40
2023-03-01T12:54:10.191Z,6.55
2023-03-01T12:55:10.197Z,6.49
2023-03-01T12:56:10.194Z,6.52
2023-03-01T12:57:10.139Z,6.52
2023-03-01T12:58:10.218Z,6.58
2023-03-01T12:59:10.139Z,6.52
2023-03-01T13:00:10.143Z,6.54
2023-03-01T13:01:10.122Z,6.51
2023-03-01T13:02:10.101Z,6.38
2023-03-01T13:03:10.076Z,6.43
2023-03-01T13:04:10.131Z,6.33
2023-03-01T13:05:10.090Z,6.55
2023-03-01T13:06:10.046Z,6.55
2023-03-01T13:07:10.044Z,6.49
2023-03-01T13:08:10.014Z,6.54
2023-03-01T13:09:09.999Z,6.55
2023-03-01T13:10:10.064Z,6.58
2023-03-01T13:11:10.007Z,6.59